createdAt,value
2018-11-13T00:00:16.251Z,18.73
2018-11-13T00:02:44.875Z,20.57
2018-11-13T00:05:13.734Z,18.17
2018-11-13T00:07:42.607Z,19.37
2018-11-13T00:10:11.522Z,18.90
2018-11-13T00:12:39.813Z,17.60
2018-11-13T00:15:08.120Z,15.87
2018-11-13T00:17:37.291Z,17.80
2018-11-13T00:20:08.109Z,20.27
2018-11-13T00:22:36.378Z,21.20
2018-11-13T00:25:05.606Z,19.90
2018-11-13T00:27:33.973Z,18.93
2018-11-13T00:30:02.160Z,17.50
2018-11-13T00:32:30.491Z,17.83
2018-11-13T00:34:58.795Z,18.03
2018-11-13T00:37:27.439Z,21.47
2018-11-13T00:39:55.974Z,15.87
2018-11-13T00:42:23.959Z,20.00
2018-11-13T00:44:52.178Z,18.00
2018-11-13T00:47:22.015Z,17.50
2018-11-13T00:49:50.275Z,19.57
2018-11-13T00:52:18.550Z,17.77
2018-11-13T00:54:46.840Z,19.63
2018-11-13T00:57:15.016Z,16.57
2018-11-13T00:59:43.315Z,16.60
2018-11-13T01:02:11.903Z,16.20
2018-11-13T01:04:41.443Z,17.10
2018-11-13T01:07:10.862Z,19.97
2018-11-13T01:09:40.091Z,18.63
2018-11-13T01:12:08.571Z,18.87
2018-11-13T01:14:37.355Z,18.10
2018-11-13T01:17:06.244Z,19.33
2018-11-13T01:19:34.946Z,18.77
2018-11-13T01:22:03.211Z,20.33
2018-11-13T01:24:31.491Z,22.93
2018-11-13T01:26:59.766Z,18.97
2018-11-13T01:29:28.400Z,19.03
2018-11-13T01:31:56.733Z,25.43
2018-11-13T01:34:25.015Z,18.20
2018-11-13T01:36:53.771Z,18.17
2018-11-13T01:39:22.049Z,18.60
2018-11-13T01:41:50.318Z,23.60
2018-11-13T01:44:19.111Z,19.00
2018-11-13T01:46:47.384Z,21.33
2018-11-13T01:49:15.680Z,20.63
2018-11-13T01:51:43.967Z,24.13
2018-11-13T01:54:12.260Z,18.80
2018-11-13T01:56:40.587Z,22.90
2018-11-13T01:59:08.856Z,21.33
2018-11-13T02:01:37.087Z,21.37
2018-11-13T02:04:06.067Z,21.23
2018-11-13T02:09:03.401Z,20.53
2018-11-13T02:11:31.675Z,24.67
2018-11-13T02:13:59.960Z,19.53
2018-11-13T02:16:28.767Z,21.13
2018-11-13T02:18:57.559Z,20.07
2018-11-13T02:21:25.832Z,23.00
2018-11-13T02:23:54.130Z,21.60
2018-11-13T02:26:22.384Z,18.80
2018-11-13T02:28:50.660Z,21.13
2018-11-13T02:31:19.235Z,17.60
2018-11-13T02:33:47.875Z,18.17
2018-11-13T02:36:16.926Z,17.83
2018-11-13T02:38:45.607Z,19.63
2018-11-13T02:41:13.886Z,17.03
2018-11-13T02:43:42.527Z,17.10
2018-11-13T02:46:10.791Z,17.47
2018-11-13T02:48:39.019Z,15.90
2018-11-13T02:51:07.366Z,21.13
2018-11-13T02:53:35.629Z,17.90
2018-11-13T02:56:04.018Z,16.60
2018-11-13T02:58:32.299Z,17.40
2018-11-13T03:01:00.567Z,17.93
2018-11-13T03:03:29.292Z,17.80
2018-11-13T03:05:57.643Z,20.87
2018-11-13T03:08:25.955Z,20.20
2018-11-13T03:10:54.435Z,18.10
2018-11-13T03:13:22.822Z,21.23
2018-11-13T03:15:51.195Z,19.10
2018-11-13T03:18:19.947Z,17.27
2018-11-13T03:20:49.072Z,16.40
2018-11-13T03:23:17.861Z,24.17
2018-11-13T03:25:46.136Z,21.90
2018-11-13T03:28:15.287Z,19.57
2018-11-13T03:30:43.560Z,18.47
2018-11-13T03:33:11.837Z,18.37
2018-11-13T03:35:40.879Z,19.00
2018-11-13T03:38:09.543Z,23.23
2018-11-13T03:40:37.815Z,18.33
2018-11-13T03:43:06.072Z,23.03
2018-11-13T03:45:34.295Z,18.57
2018-11-13T03:48:02.547Z,18.83
2018-11-13T03:50:30.833Z,18.20
2018-11-13T03:52:59.094Z,19.73
2018-11-13T03:55:27.395Z,20.07
2018-11-13T03:57:55.750Z,20.97
2018-11-13T04:00:24.267Z,18.80
2018-11-13T04:02:53.050Z,20.77
2018-11-13T04:05:22.191Z,20.97
2018-11-13T04:07:53.759Z,25.43
2018-11-13T04:10:22.564Z,21.13
2018-11-13T04:12:50.835Z,26.07
2018-11-13T04:15:24.471Z,22.57
2018-11-13T04:17:53.458Z,20.53
2018-11-13T04:20:22.479Z,21.33
2018-11-13T04:22:50.728Z,21.07
2018-11-13T04:25:19.022Z,20.60
2018-11-13T04:27:47.278Z,21.20
2018-11-13T04:30:16.744Z,22.13
2018-11-13T04:32:45.082Z,20.87
2018-11-13T04:35:14.735Z,23.33
2018-11-13T04:37:43.531Z,20.17
2018-11-13T04:40:16.406Z,22.07
2018-11-13T04:42:46.275Z,20.87
2018-11-13T04:45:17.580Z,20.93
2018-11-13T04:47:47.739Z,22.70
2018-11-13T04:50:16.934Z,20.97
2018-11-13T04:52:45.377Z,20.60
2018-11-13T04:55:14.714Z,20.30
2018-11-13T04:57:43.892Z,19.00
2018-11-13T05:00:13.887Z,19.73
2018-11-13T05:02:43.343Z,19.30
2018-11-13T05:05:13.028Z,19.77
2018-11-13T05:07:41.847Z,18.67
2018-11-13T05:10:11.937Z,18.83
2018-11-13T05:12:40.826Z,19.00
2018-11-13T05:15:09.111Z,18.20
2018-11-13T05:17:37.991Z,17.23
2018-11-13T05:20:07.283Z,17.90
2018-11-13T05:22:35.566Z,18.23
2018-11-13T05:25:04.855Z,17.50
2018-11-13T05:27:33.107Z,18.47
2018-11-13T05:30:01.439Z,18.13
2018-11-13T05:32:29.783Z,17.77
2018-11-13T05:34:58.659Z,18.37
2018-11-13T05:37:27.498Z,20.07
2018-11-13T05:39:55.746Z,20.53
2018-11-13T05:42:24.067Z,19.77
2018-11-13T05:44:52.337Z,19.30
2018-11-13T05:47:20.638Z,16.87
2018-11-13T05:49:48.926Z,18.30
2018-11-13T05:52:17.455Z,16.73
2018-11-13T05:54:46.163Z,14.60
2018-11-13T05:57:15.026Z,16.17
2018-11-13T05:59:43.307Z,15.80
2018-11-13T06:02:11.583Z,18.10
2018-11-13T06:04:41.392Z,21.00
2018-11-13T06:07:10.386Z,20.70
2018-11-13T06:09:38.667Z,18.60
2018-11-13T06:12:06.948Z,17.73
2018-11-13T06:14:35.239Z,16.60
2018-11-13T06:17:04.106Z,16.90
2018-11-13T06:19:32.791Z,15.80
2018-11-13T06:22:00.990Z,15.40
2018-11-13T06:24:29.250Z,16.27
2018-11-13T06:26:57.514Z,18.83
2018-11-13T06:29:25.830Z,16.43
2018-11-13T06:31:54.015Z,15.40
2018-11-13T06:34:22.731Z,15.93
2018-11-13T06:36:52.000Z,19.63
2018-11-13T06:39:20.251Z,17.57
2018-11-13T06:41:49.220Z,17.07
2018-11-13T06:44:17.902Z,16.70
2018-11-13T06:46:46.125Z,17.10
2018-11-13T06:49:14.465Z,16.47
2018-11-13T06:51:42.907Z,15.70
2018-11-13T06:54:23.343Z,15.90
2018-11-13T06:56:51.599Z,18.83
2018-11-13T06:59:19.843Z,15.27
2018-11-13T07:01:48.072Z,15.50
2018-11-13T07:04:16.728Z,14.73
2018-11-13T07:06:44.983Z,17.83
2018-11-13T07:09:13.309Z,14.90
2018-11-13T07:11:41.535Z,15.33
2018-11-13T07:14:09.791Z,15.13
2018-11-13T07:16:38.062Z,14.37
2018-11-13T07:19:06.512Z,13.57
2018-11-13T07:21:34.763Z,14.90
2018-11-13T07:24:03.054Z,13.57
2018-11-13T07:26:31.500Z,13.57
2018-11-13T07:29:00.876Z,13.10
2018-11-13T07:31:29.742Z,14.90
2018-11-13T07:33:57.971Z,12.80
2018-11-13T07:36:26.805Z,12.70
2018-11-13T07:38:55.084Z,12.67
2018-11-13T07:41:23.752Z,14.17
2018-11-13T07:43:52.128Z,14.03
2018-11-13T07:46:20.326Z,12.40
2018-11-13T07:48:48.574Z,12.37
2018-11-13T07:51:17.334Z,12.63
2018-11-13T07:53:45.455Z,11.50
2018-11-13T07:56:13.707Z,12.33
2018-11-13T07:58:42.319Z,12.60
2018-11-13T08:01:10.654Z,12.57
2018-11-13T08:03:40.545Z,14.97
2018-11-13T08:06:08.855Z,12.00
2018-11-13T08:08:37.198Z,11.03
2018-11-13T08:11:05.745Z,10.97
2018-11-13T08:13:35.080Z,10.93
2018-11-13T08:16:03.369Z,11.83
2018-11-13T08:18:32.499Z,10.80
2018-11-13T08:21:00.755Z,10.43
2018-11-13T08:23:29.072Z,9.97
2018-11-13T08:25:57.386Z,8.73
2018-11-13T08:28:26.296Z,9.13
2018-11-13T08:30:54.519Z,8.47
2018-11-13T08:33:22.778Z,9.53
2018-11-13T08:35:51.488Z,9.63
2018-11-13T08:38:21.657Z,8.73
2018-11-13T08:40:49.875Z,10.40
2018-11-13T08:43:18.186Z,9.37
2018-11-13T08:45:46.436Z,8.93
2018-11-13T08:48:14.688Z,8.80
2018-11-13T08:50:43.024Z,10.13
2018-11-13T08:53:11.708Z,8.90
2018-11-13T08:55:40.007Z,9.17
2018-11-13T08:58:08.283Z,8.30
2018-11-13T09:00:36.612Z,8.40
2018-11-13T09:03:05.775Z,8.50
2018-11-13T09:05:34.438Z,7.90
2018-11-13T09:08:02.667Z,9.50
2018-11-13T09:10:31.703Z,9.67
2018-11-13T09:12:59.899Z,8.80
2018-11-13T09:15:28.168Z,8.17
2018-11-13T09:17:56.729Z,8.43
2018-11-13T09:20:24.931Z,7.53
2018-11-13T09:22:53.240Z,9.37
2018-11-13T09:25:22.100Z,7.93
2018-11-13T09:27:50.758Z,8.50
2018-11-13T09:30:21.140Z,8.03
2018-11-13T09:32:49.658Z,8.80
2018-11-13T09:35:19.005Z,8.03
2018-11-13T09:37:50.623Z,8.00
2018-11-13T09:40:19.947Z,7.93
2018-11-13T09:42:49.812Z,8.53
2018-11-13T09:45:18.239Z,7.80
2018-11-13T09:47:46.840Z,8.63
2018-11-13T09:50:17.286Z,9.23
2018-11-13T09:52:47.215Z,8.60
2018-11-13T09:55:16.821Z,9.37
2018-11-13T09:58:03.141Z,8.00
2018-11-13T10:03:28.826Z,9.03
2018-11-13T10:05:58.331Z,10.40
2018-11-13T10:08:26.598Z,9.37
2018-11-13T10:10:54.890Z,10.23
2018-11-13T10:13:23.269Z,11.27
2018-11-13T10:15:51.529Z,10.53
2018-11-13T10:18:20.411Z,12.30
2018-11-13T10:20:48.549Z,12.40
2018-11-13T10:23:17.355Z,12.73
2018-11-13T10:25:45.659Z,13.03
2018-11-13T10:28:13.997Z,13.93
2018-11-13T10:30:42.504Z,12.83
2018-11-13T10:33:11.414Z,12.60
2018-11-13T10:35:40.126Z,13.90
2018-11-13T10:38:09.379Z,11.73
2018-11-13T10:40:37.818Z,11.83
2018-11-13T10:43:05.990Z,13.67
2018-11-13T10:45:34.300Z,12.07
2018-11-13T10:48:02.627Z,12.70
2018-11-13T10:50:32.312Z,13.77
2018-11-13T10:53:00.614Z,12.10
2018-11-13T10:55:28.941Z,12.50
2018-11-13T10:57:57.245Z,12.97
2018-11-13T11:01:00.669Z,14.33
2018-11-13T11:03:34.941Z,14.00
2018-11-13T11:06:03.232Z,15.57
2018-11-13T11:08:31.538Z,17.03
2018-11-13T11:11:00.491Z,17.30
2018-11-13T11:13:28.929Z,17.60
2018-11-13T11:15:57.619Z,17.67
2018-11-13T11:18:26.455Z,19.13
2018-11-13T11:20:54.795Z,17.93
2018-11-13T11:23:23.307Z,18.53
2018-11-13T11:25:51.597Z,18.87
2018-11-13T11:28:19.931Z,18.47
2018-11-13T11:30:48.369Z,19.63
2018-11-13T11:33:17.134Z,19.60
2018-11-13T11:35:46.121Z,21.37
2018-11-13T11:38:15.218Z,20.20
2018-11-13T11:40:43.512Z,21.40
2018-11-13T11:43:11.875Z,21.57
2018-11-13T11:45:40.252Z,20.27
2018-11-13T11:48:08.673Z,19.83
2018-11-13T11:50:37.046Z,21.60
2018-11-13T11:53:06.106Z,21.53
2018-11-13T11:55:34.381Z,21.40
2018-11-13T11:58:02.753Z,22.90
2018-11-13T12:00:33.796Z,22.17
2018-11-13T12:03:02.582Z,23.70
2018-11-13T12:05:31.482Z,25.00
2018-11-13T12:07:59.854Z,22.93
2018-11-13T12:10:28.172Z,23.23
2018-11-13T12:12:56.895Z,23.77
2018-11-13T12:15:25.290Z,23.33
2018-11-13T12:17:54.299Z,19.40
2018-11-13T12:20:22.578Z,19.60
2018-11-13T12:22:50.959Z,18.60
2018-11-13T12:25:20.287Z,17.70
2018-11-13T12:27:49.273Z,17.67
2018-11-13T12:30:19.023Z,16.10
2018-11-13T12:32:48.252Z,14.67
2018-11-13T12:35:18.262Z,16.27
2018-11-13T12:37:47.434Z,14.33
2018-11-13T12:40:16.957Z,13.30
2018-11-13T12:42:46.576Z,17.10
2018-11-13T12:45:14.718Z,14.90
2018-11-13T12:47:43.581Z,13.83
2018-11-13T12:50:13.033Z,14.03
2018-11-13T12:52:41.653Z,15.30
2018-11-13T12:55:17.986Z,13.67
2018-11-13T12:57:46.478Z,14.67
2018-11-13T13:00:18.082Z,14.00
2018-11-13T13:02:47.423Z,13.73
2018-11-13T13:05:15.958Z,13.10
2018-11-13T13:07:44.360Z,13.47
2018-11-13T13:10:13.802Z,13.60
2018-11-13T13:12:42.218Z,14.53
2018-11-13T13:15:12.591Z,14.80
2018-11-13T13:17:41.558Z,13.90
2018-11-13T13:20:14.948Z,15.30
2018-11-13T13:22:43.974Z,14.00
2018-11-13T13:25:13.690Z,15.27
2018-11-13T13:27:42.502Z,15.73
2018-11-13T13:30:14.026Z,16.40
2018-11-13T13:32:42.391Z,17.17
2018-11-13T13:35:44.886Z,17.23
2018-11-13T13:38:13.659Z,17.07
2018-11-13T13:40:43.079Z,17.43
2018-11-13T13:43:12.234Z,17.30
2018-11-13T13:45:41.265Z,16.70
2018-11-13T13:48:09.622Z,17.30
2018-11-13T13:50:39.147Z,18.13
2018-11-13T13:53:08.232Z,16.63
2018-11-13T13:55:37.525Z,18.00
2018-11-13T13:58:05.922Z,18.97
2018-11-13T14:00:34.258Z,18.50
2018-11-13T14:03:03.324Z,17.57
2018-11-13T14:05:31.762Z,17.60
2018-11-13T14:08:00.084Z,16.60
2018-11-13T14:10:28.523Z,17.80
2018-11-13T14:12:56.885Z,17.33
2018-11-13T14:15:25.357Z,17.20
2018-11-13T14:17:54.149Z,18.63
2018-11-13T14:20:22.436Z,16.63
2018-11-13T14:22:51.323Z,16.53
2018-11-13T14:25:19.657Z,16.50
2018-11-13T14:27:48.147Z,17.63
2018-11-13T14:30:25.482Z,14.30
2018-11-13T14:32:54.966Z,15.30
2018-11-13T14:35:24.169Z,14.97
2018-11-13T14:37:53.166Z,14.47
2018-11-13T14:40:26.454Z,14.33
2018-11-13T14:42:54.852Z,14.80
2018-11-13T14:45:24.105Z,13.20
2018-11-13T14:47:52.761Z,13.07
2018-11-13T14:50:22.482Z,12.27
2018-11-13T14:52:52.146Z,13.00
2018-11-13T14:55:22.865Z,11.87
2018-11-13T14:57:51.582Z,12.93
2018-11-13T15:00:22.501Z,11.50
2018-11-13T15:02:52.285Z,11.87
2018-11-13T15:05:21.369Z,11.37
2018-11-13T15:07:51.086Z,12.20
2018-11-13T15:10:52.983Z,12.27
2018-11-13T15:13:22.940Z,11.17
2018-11-13T15:15:51.254Z,10.93
2018-11-13T15:18:20.002Z,10.60
2018-11-13T15:20:49.024Z,11.20
2018-11-13T15:23:17.375Z,9.37
2018-11-13T15:25:45.757Z,10.13
2018-11-13T15:28:14.226Z,9.57
2018-11-13T15:30:44.685Z,9.83
2018-11-13T15:33:15.850Z,8.97
2018-11-13T15:35:45.218Z,9.87
2018-11-13T15:38:14.047Z,9.23
2018-11-13T15:40:42.345Z,8.80
2018-11-13T15:43:11.025Z,9.03
2018-11-13T15:45:39.337Z,9.93
2018-11-13T15:48:09.100Z,10.23
2018-11-13T15:50:37.927Z,9.77
2018-11-13T15:53:06.747Z,9.67
2018-11-13T15:55:35.095Z,9.30
2018-11-13T15:58:03.477Z,10.10
2018-11-13T16:00:34.117Z,10.33
2018-11-13T16:03:05.039Z,9.70
2018-11-13T16:05:34.977Z,10.10
2018-11-13T16:08:05.082Z,9.67
2018-11-13T16:10:33.294Z,12.00
2018-11-13T16:13:01.915Z,10.40
2018-11-13T16:15:31.060Z,10.27
2018-11-13T16:18:01.062Z,9.73
2018-11-13T16:20:29.333Z,9.07
2018-11-13T16:22:57.626Z,9.27
2018-11-13T16:25:26.518Z,9.00
2018-11-13T16:27:55.101Z,8.57
2018-11-13T16:30:26.369Z,8.80
2018-11-13T16:32:55.414Z,8.43
2018-11-13T16:35:25.521Z,9.53
2018-11-13T16:37:55.643Z,9.47
2018-11-13T16:40:26.090Z,8.70
2018-11-13T16:42:54.727Z,9.03
2018-11-13T16:45:23.782Z,8.30
2018-11-13T16:47:52.560Z,9.40
2018-11-13T16:50:31.190Z,8.97
2018-11-13T16:53:00.213Z,9.43
2018-11-13T16:55:33.936Z,10.73
2018-11-13T16:58:03.497Z,9.13
2018-11-13T17:00:31.819Z,8.97
2018-11-13T17:03:00.520Z,9.80
2018-11-13T17:05:29.209Z,9.67
2018-11-13T17:07:57.410Z,8.83
2018-11-13T17:10:27.029Z,8.47
2018-11-13T17:12:55.698Z,8.57
2018-11-13T17:15:25.657Z,8.53
2018-11-13T17:17:55.378Z,9.17
2018-11-13T17:20:24.142Z,8.87
2018-11-13T17:22:52.649Z,9.73
2018-11-13T17:25:22.309Z,9.80
2018-11-13T17:27:52.061Z,12.43
2018-11-13T17:30:22.718Z,11.00
2018-11-13T17:32:51.546Z,11.37
2018-11-13T17:35:21.348Z,11.17
2018-11-13T17:37:51.011Z,11.90
2018-11-13T17:40:20.967Z,10.80
2018-11-13T17:42:50.726Z,10.60
2018-11-13T17:45:21.251Z,13.10
2018-11-13T17:47:49.686Z,10.50
2018-11-13T17:50:37.132Z,10.03
2018-11-13T17:53:06.305Z,11.90
2018-11-13T17:55:34.630Z,13.20
2018-11-13T17:58:04.272Z,13.23
2018-11-13T18:00:34.283Z,12.63
2018-11-13T18:03:04.122Z,12.57
2018-11-13T18:05:32.814Z,11.70
2018-11-13T18:08:02.007Z,10.33
2018-11-13T18:10:31.447Z,11.60
2018-11-13T18:13:00.937Z,10.83
2018-11-13T18:15:30.769Z,10.43
2018-11-13T18:17:59.674Z,10.80
2018-11-13T18:20:35.681Z,10.87
2018-11-13T18:23:04.276Z,12.87
2018-11-13T18:25:32.721Z,11.97
2018-11-13T18:28:02.348Z,13.33
2018-11-13T18:30:32.029Z,12.53
2018-11-13T18:33:01.654Z,11.80
2018-11-13T18:35:33.707Z,13.97
2018-11-13T18:38:05.627Z,11.93
2018-11-13T18:40:33.923Z,12.37
2018-11-13T18:43:02.632Z,10.93
2018-11-13T18:45:35.338Z,11.40
2018-11-13T18:48:04.846Z,11.13
2018-11-13T18:50:41.084Z,14.70
2018-11-13T18:53:09.422Z,16.73
2018-11-13T18:55:38.099Z,14.63
2018-11-13T18:58:06.532Z,13.63
2018-11-13T19:00:36.860Z,14.07
2018-11-13T19:03:07.045Z,14.00
2018-11-13T19:05:35.375Z,14.00
2018-11-13T19:08:03.698Z,14.53
2018-11-13T19:10:38.691Z,13.23
2018-11-13T19:13:09.012Z,14.37
2018-11-13T19:15:39.189Z,14.53
2018-11-13T19:18:08.385Z,14.70
2018-11-13T19:20:36.676Z,14.67
2018-11-13T19:23:05.322Z,13.50
2018-11-13T19:25:34.690Z,15.07
2018-11-13T19:28:03.476Z,16.20
2018-11-13T19:30:31.899Z,14.03
2018-11-13T19:33:00.177Z,14.27
2018-11-13T19:35:29.261Z,13.23
2018-11-13T19:37:57.995Z,13.47
2018-11-13T19:40:27.589Z,15.57
2018-11-13T19:42:57.370Z,15.57
2018-11-13T19:45:25.690Z,14.40
2018-11-13T19:47:54.622Z,15.93
2018-11-13T19:50:27.821Z,21.30
2018-11-13T19:52:56.215Z,17.77
2018-11-13T19:55:25.513Z,16.20
2018-11-13T19:57:54.225Z,16.17
2018-11-13T20:00:25.414Z,23.67
2018-11-13T20:02:55.941Z,22.93
2018-11-13T20:05:25.377Z,19.33
2018-11-13T20:07:54.902Z,17.23
2018-11-13T20:10:25.471Z,14.93
2018-11-13T20:12:55.980Z,15.13
2018-11-13T20:15:25.309Z,22.73
2018-11-13T20:17:54.155Z,17.07
2018-11-13T20:20:23.717Z,13.83
2018-11-13T20:22:53.211Z,14.63
2018-11-13T20:25:22.913Z,14.93
2018-11-13T20:27:51.706Z,14.20
2018-11-13T20:30:24.399Z,13.73
2018-11-13T20:32:52.741Z,13.77
2018-11-13T20:35:21.423Z,14.40
2018-11-13T20:37:51.016Z,12.53
2018-11-13T20:40:20.557Z,14.27
2018-11-13T20:42:50.071Z,14.30
2018-11-13T20:45:18.521Z,13.87
2018-11-13T20:47:46.821Z,14.40
2018-11-13T20:50:16.959Z,14.97
2018-11-13T20:52:45.565Z,14.77
2018-11-13T20:55:13.926Z,14.57
2018-11-13T20:57:42.276Z,15.83
2018-11-13T21:00:13.136Z,16.40
2018-11-13T21:02:41.597Z,15.87
2018-11-13T21:05:10.336Z,17.73
2018-11-13T21:07:38.647Z,17.53
2018-11-13T21:10:08.751Z,17.30
2018-11-13T21:12:37.114Z,19.23
2018-11-13T21:15:07.261Z,19.40
2018-11-13T21:17:36.152Z,17.73
2018-11-13T21:20:05.280Z,21.33
2018-11-13T21:22:34.214Z,19.20
2018-11-13T21:25:02.646Z,18.30
2018-11-13T21:27:31.081Z,18.77
2018-11-13T21:30:00.065Z,20.80
2018-11-13T21:32:28.303Z,20.50
2018-11-13T21:34:57.284Z,19.70
2018-11-13T21:37:26.362Z,19.43
2018-11-13T21:39:55.358Z,19.13
2018-11-13T21:42:23.758Z,20.37
2018-11-13T21:44:52.123Z,19.80
2018-11-13T21:47:20.419Z,21.03
2018-11-13T21:49:49.264Z,19.67
2018-11-13T21:52:17.529Z,21.90
2018-11-13T21:57:25.806Z,19.03
2018-11-13T21:59:54.786Z,20.57
2018-11-13T22:02:23.102Z,17.73
2018-11-13T22:04:52.074Z,21.23
2018-11-13T22:07:20.509Z,19.47
2018-11-13T22:09:48.864Z,17.67
2018-11-13T22:12:17.202Z,19.93
2018-11-13T22:14:45.507Z,18.90
2018-11-13T22:17:14.619Z,19.07
2018-11-13T22:19:44.121Z,23.53
2018-11-13T22:22:12.180Z,18.43
2018-11-13T22:24:40.735Z,17.90
2018-11-13T22:27:09.563Z,19.37
2018-11-13T22:29:38.594Z,18.60
2018-11-13T22:32:07.097Z,19.13
2018-11-13T22:34:36.315Z,24.60
2018-11-13T22:37:05.616Z,19.47
2018-11-13T22:39:37.589Z,24.00
2018-11-13T22:42:06.363Z,20.83
2018-11-13T22:44:35.732Z,20.77
2018-11-13T22:47:04.396Z,20.00
2018-11-13T22:49:33.528Z,21.07
2018-11-13T22:52:01.903Z,18.77
2018-11-13T22:54:30.351Z,19.50
2018-11-13T22:56:59.640Z,18.93
2018-11-13T22:59:29.052Z,22.33
2018-11-13T23:01:57.643Z,21.57
2018-11-13T23:04:26.246Z,20.37
2018-11-13T23:06:54.742Z,18.60
2018-11-13T23:09:23.244Z,20.37
2018-11-13T23:11:51.635Z,18.07
2018-11-13T23:14:20.671Z,18.83
2018-11-13T23:16:49.157Z,19.03
2018-11-13T23:19:18.127Z,18.47
2018-11-13T23:21:46.449Z,18.73
2018-11-13T23:24:16.436Z,20.00
2018-11-13T23:26:44.734Z,17.93
2018-11-13T23:29:13.010Z,19.63
2018-11-13T23:31:41.394Z,19.73
2018-11-13T23:34:10.509Z,19.80
2018-11-13T23:36:39.350Z,23.37
2018-11-13T23:39:08.862Z,20.20
2018-11-13T23:41:38.128Z,18.47
2018-11-13T23:44:06.493Z,19.93
2018-11-13T23:46:35.260Z,19.33
2018-11-13T23:49:03.534Z,19.97
2018-11-13T23:51:31.776Z,19.23
2018-11-13T23:54:00.430Z,24.63
2018-11-13T23:56:29.562Z,19.43
2018-11-13T23:58:58.344Z,20.13
